Time;durP1;ratioP1;P1;durP2;ratioP2;P2;SDS_P1;SDS_P2;PMS_P1;PMS_P2;Temp;Humidity;BMP_temperature;BMP_pressure;BME280_temperature;BME280_humidity;BME280_pressure;Samples;Min_cycle;Max_cycle;Signal;HPM_P1;HPM_P2
2021/01/21 00:00:20;;;;;;;2.80;1.87;;;;;;;;;;10298675;28;20221;-89
2021/01/21 00:05:21;;;;;;;2.73;1.80;;;;;;;;;;10307995;28;20730;-90
2021/01/21 00:10:24;;;;;;;2.77;1.77;;;;;;;;;;10303214;28;20241;-89
2021/01/21 00:15:26;;;;;;;3.13;2.03;;;;;;;;;;10293161;28;20224;-89
2021/01/21 00:20:28;;;;;;;4.80;1.80;;;;;;;;;;10297583;28;20217;-87
2021/01/21 00:25:31;;;;;;;3.03;1.80;;;;;;;;;;10302947;28;20591;-89
2021/01/21 00:30:33;;;;;;;1.67;1.47;;;;;;;;;;10297620;28;20255;-88
2021/01/21 00:35:35;;;;;;;3.00;1.77;;;;;;;;;;10301555;28;20205;-89
2021/01/21 00:40:37;;;;;;;3.90;1.80;;;;;;;;;;10304586;28;20210;-88
2021/01/21 00:45:39;;;;;;;3.57;2.00;;;;;;;;;;10304512;28;20220;-90
2021/01/21 00:50:41;;;;;;;2.80;1.60;;;;;;;;;;10300475;28;20729;-89
2021/01/21 00:55:45;;;;;;;3.27;1.60;;;;;;;;;;10303729;28;20210;-89
2021/01/21 01:00:47;;;;;;;3.43;2.00;;;;;;;;;;10297701;28;20220;-89
2021/01/21 01:05:49;;;;;;;4.13;1.80;;;;;;;;;;10304758;28;20725;-90
2021/01/21 01:10:52;;;;;;;4.37;1.80;;;;;;;;;;10304532;28;20248;-89
2021/01/21 01:15:53;;;;;;;4.13;1.90;;;;;;;;;;10296215;28;20220;-90
2021/01/21 01:20:55;;;;;;;3.67;1.70;;;;;;;;;;10302373;28;20228;-89
2021/01/21 01:25:58;;;;;;;3.63;1.67;;;;;;;;;;10304627;28;20220;-88
2021/01/21 01:31:00;;;;;;;4.23;1.77;;;;;;;;;;10300478;28;20239;-89
2021/01/21 01:36:01;;;;;;;2.30;1.50;;;;;;;;;;10298037;28;20956;-90
2021/01/21 01:41:04;;;;;;;3.07;1.60;;;;;;;;;;10311051;28;20220;-89
2021/01/21 01:46:07;;;;;;;3.37;1.70;;;;;;;;;;10310179;28;20582;-89
2021/01/21 01:51:09;;;;;;;3.33;1.70;;;;;;;;;;10323181;28;20229;-87
2021/01/21 01:56:12;;;;;;;3.17;1.63;;;;;;;;;;10310094;28;20281;-88
2021/01/21 02:01:15;;;;;;;4.90;1.77;;;;;;;;;;10307656;28;20214;-90
2021/01/21 02:06:17;;;;;;;4.20;1.50;;;;;;;;;;10308536;28;20243;-88
2021/01/21 02:11:25;;;;;;;3.40;1.60;;;;;;;;;;10307595;28;20308;-89
2021/01/21 02:16:44;;;;;;;2.63;1.63;;;;;;;;;;10305671;28;20254;-87
2021/01/21 02:22:09;;;;;;;2.57;1.53;;;;;;;;;;10305445;28;20359;-89
2021/01/21 02:27:14;;;;;;;3.07;1.63;;;;;;;;;;10300217;28;20593;-90
2021/01/21 02:32:35;;;;;;;2.87;1.70;;;;;;;;;;10307682;28;20265;-91
2021/01/21 02:37:45;;;;;;;2.23;1.37;;;;;;;;;;10304161;28;20610;-90
2021/01/21 02:42:48;;;;;;;1.90;1.30;;;;;;;;;;10305785;28;20640;-90
2021/01/21 02:47:50;;;;;;;4.00;1.40;;;;;;;;;;10302975;28;20237;-90
2021/01/21 02:52:56;;;;;;;3.50;1.43;;;;;;;;;;10301574;28;20792;-88
2021/01/21 02:58:07;;;;;;;3.90;1.53;;;;;;;;;;10300486;28;20250;-91
2021/01/21 03:03:11;;;;;;;5.87;1.40;;;;;;;;;;10303732;28;20234;-90
2021/01/21 03:08:15;;;;;;;3.13;1.60;;;;;;;;;;10305207;28;20262;-89
2021/01/21 03:13:17;;;;;;;3.27;1.40;;;;;;;;;;10309206;28;20224;-89
2021/01/21 03:18:18;;;;;;;2.93;1.40;;;;;;;;;;10304968;28;20209;-89
2021/01/21 03:23:22;;;;;;;2.93;1.50;;;;;;;;;;10308705;28;20216;-90
2021/01/21 03:28:24;;;;;;;3.93;1.40;;;;;;;;;;10314850;28;20311;-90
2021/01/21 03:33:26;;;;;;;3.13;1.40;;;;;;;;;;10312579;28;20217;-91
2021/01/21 03:38:28;;;;;;;3.30;1.40;;;;;;;;;;10308625;28;20283;-88
2021/01/21 03:43:30;;;;;;;4.43;1.37;;;;;;;;;;10298638;28;20752;-89
2021/01/21 03:48:32;;;;;;;4.67;1.70;;;;;;;;;;10301574;28;20523;-92
2021/01/21 03:53:35;;;;;;;9.10;2.10;;;;;;;;;;10304927;28;20701;-90
2021/01/21 03:58:37;;;;;;;7.30;1.80;;;;;;;;;;10316570;28;21010;-89
2021/01/21 04:03:39;;;;;;;6.10;1.40;;;;;;;;;;10312096;28;20705;-87
2021/01/21 04:08:42;;;;;;;4.50;1.20;;;;;;;;;;10310994;28;20276;-90
2021/01/21 04:13:44;;;;;;;6.47;1.80;;;;;;;;;;10308634;28;20687;-87
2021/01/21 04:18:46;;;;;;;6.10;1.50;;;;;;;;;;10297249;28;20243;-88
2021/01/21 04:23:51;;;;;;;4.03;1.27;;;;;;;;;;10308131;28;20213;-88
2021/01/21 04:28:53;;;;;;;5.83;1.50;;;;;;;;;;10303891;28;20248;-88
2021/01/21 04:33:55;;;;;;;5.90;1.47;;;;;;;;;;10312094;28;20221;-89
2021/01/21 04:38:58;;;;;;;8.30;1.60;;;;;;;;;;10305899;28;20311;-89
2021/01/21 04:44:00;;;;;;;6.07;1.43;;;;;;;;;;10296476;28;20217;-89
2021/01/21 04:49:02;;;;;;;6.40;1.63;;;;;;;;;;10301760;28;20233;-89
2021/01/21 04:54:06;;;;;;;5.73;1.77;;;;;;;;;;10302515;28;20593;-89
2021/01/21 04:59:10;;;;;;;8.80;1.90;;;;;;;;;;10295669;28;20657;-89
2021/01/21 05:04:12;;;;;;;10.70;2.70;;;;;;;;;;10300244;28;20672;-89
2021/01/21 05:09:15;;;;;;;12.60;2.63;;;;;;;;;;10313150;28;20244;-89
2021/01/21 05:14:17;;;;;;;15.63;2.47;;;;;;;;;;10298771;28;20213;-90
2021/01/21 05:19:20;;;;;;;10.37;2.60;;;;;;;;;;10313428;28;20236;-92
2021/01/21 05:24:25;;;;;;;13.60;2.50;;;;;;;;;;10306172;28;20221;-91
2021/01/21 05:29:27;;;;;;;7.70;2.20;;;;;;;;;;10316406;28;20247;-90
2021/01/21 05:34:32;;;;;;;11.20;2.97;;;;;;;;;;10313400;28;20209;-89
2021/01/21 05:39:38;;;;;;;10.97;2.23;;;;;;;;;;10307381;28;20217;-91
2021/01/21 05:44:40;;;;;;;15.30;2.50;;;;;;;;;;10303327;28;20216;-90
2021/01/21 05:49:42;;;;;;;9.47;2.40;;;;;;;;;;10305066;28;20769;-90
2021/01/21 05:54:45;;;;;;;11.00;2.40;;;;;;;;;;10307192;28;20221;-90
2021/01/21 05:59:47;;;;;;;8.93;2.70;;;;;;;;;;10316902;28;20217;-90
2021/01/21 06:04:49;;;;;;;8.23;2.10;;;;;;;;;;10313898;28;20241;-90
2021/01/21 06:09:52;;;;;;;8.87;2.30;;;;;;;;;;10312477;28;20241;-89
2021/01/21 06:14:57;;;;;;;8.00;2.10;;;;;;;;;;10308360;28;20237;-90
2021/01/21 06:19:59;;;;;;;9.40;1.87;;;;;;;;;;10309771;28;20201;-88
2021/01/21 06:25:04;;;;;;;10.27;1.97;;;;;;;;;;10311689;28;20205;-91
2021/01/21 06:30:09;;;;;;;8.87;2.00;;;;;;;;;;10314035;28;20608;-89
2021/01/21 06:35:16;;;;;;;6.97;2.03;;;;;;;;;;10316306;28;20221;-90
2021/01/21 06:40:20;;;;;;;9.73;2.40;;;;;;;;;;10313619;28;20698;-90
2021/01/21 06:45:21;;;;;;;7.90;1.80;;;;;;;;;;10299282;28;20217;-87
2021/01/21 06:50:27;;;;;;;9.43;1.90;;;;;;;;;;10295437;28;20241;-87
2021/01/21 06:55:30;;;;;;;8.70;2.20;;;;;;;;;;10296960;28;20576;-88
2021/01/21 07:00:40;;;;;;;7.97;1.80;;;;;;;;;;10297031;28;20264;-86
2021/01/21 07:05:55;;;;;;;8.43;1.93;;;;;;;;;;10293628;28;20603;-86
2021/01/21 07:10:59;;;;;;;6.43;1.90;;;;;;;;;;10289144;28;20260;-87
2021/01/21 07:16:03;;;;;;;5.27;1.93;;;;;;;;;;10287622;28;20703;-86
2021/01/21 07:21:06;;;;;;;6.27;1.97;;;;;;;;;;10299969;28;20216;-87
2021/01/21 07:26:20;;;;;;;8.00;1.93;;;;;;;;;;10293390;28;20210;-87
2021/01/21 07:31:53;;;;;;;7.80;2.07;;;;;;;;;;10294607;28;20260;-85
2021/01/21 07:37:12;;;;;;;7.57;1.97;;;;;;;;;;10298752;28;20248;-88
2021/01/21 07:42:15;;;;;;;7.70;2.10;;;;;;;;;;10284405;28;20217;-87
2021/01/21 07:47:27;;;;;;;7.67;1.77;;;;;;;;;;10281528;28;20213;-86
2021/01/21 07:52:38;;;;;;;8.03;1.80;;;;;;;;;;10281586;28;20217;-87
2021/01/21 07:57:41;;;;;;;7.37;2.10;;;;;;;;;;10292708;28;20214;-87
2021/01/21 08:02:44;;;;;;;8.53;2.10;;;;;;;;;;10299032;28;20904;-89
2021/01/21 08:07:48;;;;;;;9.50;1.97;;;;;;;;;;10296697;28;20233;-85
2021/01/21 08:12:52;;;;;;;8.03;2.17;;;;;;;;;;10295723;28;20217;-85
2021/01/21 08:17:54;;;;;;;9.93;2.93;;;;;;;;;;10293369;28;20223;-84
2021/01/21 08:22:58;;;;;;;7.43;2.30;;;;;;;;;;10293747;28;20228;-87
2021/01/21 08:28:02;;;;;;;8.70;2.50;;;;;;;;;;10292403;28;20244;-85
2021/01/21 08:33:07;;;;;;;10.10;2.47;;;;;;;;;;10290648;28;20228;-85
2021/01/21 08:38:11;;;;;;;9.70;2.50;;;;;;;;;;10299855;28;20221;-91
2021/01/21 08:43:15;;;;;;;8.80;2.63;;;;;;;;;;10304993;28;21065;-87
2021/01/21 08:48:24;;;;;;;9.67;2.50;;;;;;;;;;10293552;28;20241;-91
2021/01/21 08:53:28;;;;;;;9.30;2.27;;;;;;;;;;10288469;28;20764;-84
2021/01/21 08:58:31;;;;;;;11.50;2.27;;;;;;;;;;10279202;28;20205;-83
2021/01/21 09:03:36;;;;;;;10.53;2.60;;;;;;;;;;10286637;28;20859;-82
2021/01/21 09:08:45;;;;;;;10.87;2.57;;;;;;;;;;10292812;28;20756;-87
2021/01/21 09:13:49;;;;;;;10.13;2.63;;;;;;;;;;10288802;28;20229;-83
2021/01/21 09:18:52;;;;;;;9.13;2.20;;;;;;;;;;10293080;28;20220;-89
2021/01/21 09:24:04;;;;;;;9.23;2.47;;;;;;;;;;10305746;28;20617;-81
2021/01/21 09:29:07;;;;;;;8.00;2.63;;;;;;;;;;10300246;28;20940;-86
2021/01/21 09:34:08;;;;;;;7.90;2.07;;;;;;;;;;10291183;28;20223;-85
2021/01/21 09:39:10;;;;;;;9.57;2.40;;;;;;;;;;10292688;28;20291;-81
2021/01/21 09:44:15;;;;;;;9.80;2.80;;;;;;;;;;10291065;28;20368;-80
2021/01/21 09:49:17;;;;;;;8.63;2.50;;;;;;;;;;10296166;28;20714;-88
2021/01/21 09:54:19;;;;;;;12.90;2.50;;;;;;;;;;10288766;28;20681;-81
2021/01/21 10:42:26;;;;;;;10.73;2.50;;;;;;;;;;10337301;23;20239;-80
2021/01/21 10:47:27;;;;;;;8.10;2.63;;;;;;;;;;10340529;28;20216;-76
2021/01/21 10:52:29;;;;;;;7.70;2.00;;;;;;;;;;10338499;28;20220;-79
2021/01/21 10:57:32;;;;;;;10.50;2.10;;;;;;;;;;10303599;28;20677;-85
2021/01/21 11:02:35;;;;;;;7.00;2.13;;;;;;;;;;10345288;28;20575;-84
2021/01/21 11:07:37;;;;;;;9.10;2.20;;;;;;;;;;10347498;28;20626;-88
2021/01/21 11:12:40;;;;;;;12.27;1.83;;;;;;;;;;10345066;28;20223;-85
2021/01/21 11:17:42;;;;;;;8.57;1.97;;;;;;;;;;10340985;28;20219;-91
2021/01/21 11:22:44;;;;;;;13.67;2.27;;;;;;;;;;10349783;28;20300;-79
2021/01/21 11:27:47;;;;;;;10.97;1.70;;;;;;;;;;10333417;28;20236;-91
2021/01/21 11:32:49;;;;;;;8.67;2.13;;;;;;;;;;10344477;28;20247;-86
2021/01/21 11:37:51;;;;;;;7.00;2.50;;;;;;;;;;10306058;28;20236;-84
2021/01/21 11:42:54;;;;;;;11.07;2.30;;;;;;;;;;10306269;28;20831;-87
2021/01/21 11:47:56;;;;;;;10.33;2.40;;;;;;;;;;10324049;28;20396;-92
2021/01/21 11:52:58;;;;;;;9.43;2.20;;;;;;;;;;10298663;28;22232;-86
2021/01/21 11:58:01;;;;;;;8.63;2.00;;;;;;;;;;10292350;28;20217;-88
2021/01/21 12:03:05;;;;;;;10.40;1.90;;;;;;;;;;10311444;28;20582;-85
2021/01/21 12:08:07;;;;;;;10.33;2.37;;;;;;;;;;10327687;28;20450;-93
2021/01/21 12:13:10;;;;;;;6.47;1.60;;;;;;;;;;10321983;28;20433;-88
2021/01/21 12:18:12;;;;;;;5.40;1.63;;;;;;;;;;10303105;28;20205;-90
2021/01/21 12:23:14;;;;;;;5.37;1.67;;;;;;;;;;10311342;28;20628;-88
2021/01/21 12:28:18;;;;;;;8.00;1.80;;;;;;;;;;10300515;28;20729;-85
2021/01/21 12:33:19;;;;;;;4.93;1.60;;;;;;;;;;10302771;28;20251;-88
2021/01/21 12:38:22;;;;;;;6.87;1.80;;;;;;;;;;10310066;28;20693;-89
2021/01/21 12:43:25;;;;;;;5.63;1.80;;;;;;;;;;10311050;28;20663;-88
2021/01/21 12:48:27;;;;;;;7.90;2.00;;;;;;;;;;10296328;28;20241;-87
2021/01/21 12:53:29;;;;;;;5.30;1.80;;;;;;;;;;10310470;28;20781;-89
2021/01/21 12:58:32;;;;;;;6.83;2.23;;;;;;;;;;10301705;28;20213;-76
2021/01/21 13:03:36;;;;;;;7.10;1.70;;;;;;;;;;10290645;28;20588;-74
2021/01/21 13:08:39;;;;;;;5.47;1.83;;;;;;;;;;10302770;28;20300;-76
2021/01/21 13:13:42;;;;;;;8.73;1.87;;;;;;;;;;10303272;28;20228;-74
2021/01/21 13:18:44;;;;;;;7.20;1.80;;;;;;;;;;10303673;28;20720;-73
2021/01/21 13:23:46;;;;;;;6.10;1.70;;;;;;;;;;10300003;28;20589;-74
2021/01/21 13:28:48;;;;;;;5.87;1.60;;;;;;;;;;10307139;28;20241;-73
2021/01/21 13:33:50;;;;;;;7.13;1.97;;;;;;;;;;10295524;28;20788;-75
2021/01/21 13:38:52;;;;;;;8.27;1.87;;;;;;;;;;10322495;28;20224;-76
2021/01/21 13:43:55;;;;;;;8.70;2.00;;;;;;;;;;10305189;28;20213;-76
2021/01/21 13:48:56;;;;;;;6.07;1.80;;;;;;;;;;10308675;28;20251;-76
2021/01/21 13:53:59;;;;;;;5.70;2.00;;;;;;;;;;10296406;28;20229;-76
2021/01/21 13:59:02;;;;;;;9.47;1.93;;;;;;;;;;10295572;28;20223;-75
2021/01/21 14:04:10;;;;;;;9.10;1.80;;;;;;;;;;10294587;28;20681;-75
2021/01/21 14:09:12;;;;;;;4.03;1.60;;;;;;;;;;10301669;28;20244;-74
2021/01/21 14:14:28;;;;;;;5.90;1.73;;;;;;;;;;10301622;28;20212;-74
2021/01/21 14:19:30;;;;;;;6.20;1.90;;;;;;;;;;10282527;28;20209;-74
2021/01/21 15:17:29;;;;;;;6.57;1.70;;;;;;;;;;12144868;23;20311;-76
2021/01/21 15:22:31;;;;;;;7.17;1.80;;;;;;;;;;10307714;28;20260;-77
2021/01/21 15:27:33;;;;;;;6.17;1.80;;;;;;;;;;10296662;28;20221;-78
2021/01/21 15:32:37;;;;;;;5.17;1.83;;;;;;;;;;10293198;28;20229;-77
2021/01/21 15:37:40;;;;;;;8.50;1.93;;;;;;;;;;10296597;28;20226;-78
2021/01/21 15:42:43;;;;;;;5.53;1.80;;;;;;;;;;10292190;28;21254;-78
2021/01/21 15:47:46;;;;;;;9.30;2.10;;;;;;;;;;10292426;28;20305;-78
2021/01/21 15:52:48;;;;;;;5.70;1.70;;;;;;;;;;10295014;28;20253;-77
2021/01/21 15:57:50;;;;;;;7.07;2.10;;;;;;;;;;10295096;28;20221;-77
2021/01/21 16:02:52;;;;;;;6.50;2.07;;;;;;;;;;10292110;28;20217;-78
2021/01/21 16:07:55;;;;;;;6.13;1.73;;;;;;;;;;10291339;28;20694;-76
2021/01/21 16:12:57;;;;;;;7.53;2.10;;;;;;;;;;10290915;28;20570;-77
2021/01/21 16:18:00;;;;;;;5.73;1.83;;;;;;;;;;10287372;28;20222;-76
2021/01/21 16:23:02;;;;;;;7.53;2.00;;;;;;;;;;10225733;28;20269;-78
2021/01/21 16:28:04;;;;;;;8.37;2.60;;;;;;;;;;10211565;28;20236;-75
2021/01/21 16:38:28;;;;;;;7.87;2.40;;;;;;;;;;10148593;29;20223;-84
2021/01/21 16:43:29;;;;;;;8.30;2.40;;;;;;;;;;10346537;23;20216;-79
2021/01/21 16:48:31;;;;;;;8.70;2.10;;;;;;;;;;10237881;28;20350;-76
2021/01/21 16:53:34;;;;;;;7.83;2.30;;;;;;;;;;10243542;28;20601;-78
2021/01/21 16:58:36;;;;;;;6.33;2.37;;;;;;;;;;10471695;23;20763;-73
2021/01/21 17:03:38;;;;;;;11.00;2.40;;;;;;;;;;10198960;28;20619;-74
2021/01/21 17:08:41;;;;;;;7.67;2.30;;;;;;;;;;10207655;28;20239;-76
2021/01/21 17:13:43;;;;;;;9.17;2.53;;;;;;;;;;10207894;28;20218;-75
2021/01/21 17:18:45;;;;;;;7.80;2.47;;;;;;;;;;10213896;28;20907;-74
2021/01/21 17:23:47;;;;;;;8.57;2.57;;;;;;;;;;10211515;28;20230;-75
2021/01/21 17:28:49;;;;;;;8.03;2.70;;;;;;;;;;10252251;23;20289;-89
2021/01/21 17:33:51;;;;;;;11.67;3.07;;;;;;;;;;10224664;28;20243;-83
2021/01/21 17:38:54;;;;;;;50.63;23.90;;;;;;;;;;10213098;28;20219;-80
2021/01/21 17:43:56;;;;;;;14.03;5.07;;;;;;;;;;10222906;28;20278;-87
2021/01/21 17:48:58;;;;;;;10.95;3.30;;;;;;;;;;10222553;28;20636;-91
2021/01/21 17:54:01;;;;;;;11.50;3.57;;;;;;;;;;10217542;28;20475;-84
2021/01/21 17:59:03;;;;;;;8.90;2.53;;;;;;;;;;10217804;28;20221;-87
2021/01/21 18:04:05;;;;;;;8.47;2.50;;;;;;;;;;10211866;28;20222;-86
2021/01/21 18:09:08;;;;;;;14.70;2.80;;;;;;;;;;10214322;28;20246;-85
2021/01/21 18:14:10;;;;;;;8.07;3.00;;;;;;;;;;10214918;28;20959;-86
2021/01/21 18:19:12;;;;;;;9.93;3.07;;;;;;;;;;10213125;28;20326;-86
2021/01/21 18:24:15;;;;;;;8.30;2.93;;;;;;;;;;10217266;28;20249;-86
2021/01/21 18:29:17;;;;;;;5.97;2.47;;;;;;;;;;10213706;28;20723;-85
2021/01/21 18:34:19;;;;;;;8.47;1.93;;;;;;;;;;10227528;28;20728;-85
2021/01/21 18:39:22;;;;;;;10.20;1.90;;;;;;;;;;10212320;28;20301;-87
2021/01/21 18:44:23;;;;;;;5.83;1.57;;;;;;;;;;10219162;28;20220;-86
2021/01/21 18:49:25;;;;;;;5.27;2.07;;;;;;;;;;10215318;28;20246;-86
2021/01/21 18:54:28;;;;;;;5.60;1.70;;;;;;;;;;10223851;28;20623;-86
2021/01/21 18:59:30;;;;;;;4.77;2.03;;;;;;;;;;10218950;28;20223;-84
2021/01/21 19:04:32;;;;;;;7.17;1.90;;;;;;;;;;10214255;28;20223;-86
2021/01/21 19:09:35;;;;;;;4.90;2.10;;;;;;;;;;10214852;28;20722;-87
2021/01/21 19:14:37;;;;;;;5.10;1.83;;;;;;;;;;10211457;28;20215;-86
2021/01/21 19:19:39;;;;;;;7.37;2.10;;;;;;;;;;10203366;28;20246;-86
2021/01/21 19:24:42;;;;;;;6.00;2.20;;;;;;;;;;10195603;28;20227;-87
2021/01/21 19:29:45;;;;;;;5.23;2.10;;;;;;;;;;10210100;28;20253;-86
2021/01/21 19:34:47;;;;;;;6.27;2.50;;;;;;;;;;10218828;28;20770;-88
2021/01/21 19:39:50;;;;;;;4.27;2.20;;;;;;;;;;10212107;28;20219;-83
2021/01/21 19:44:52;;;;;;;5.93;2.87;;;;;;;;;;10212806;28;20701;-88
2021/01/21 19:49:55;;;;;;;4.70;2.40;;;;;;;;;;10196738;28;20730;-83
2021/01/21 19:54:58;;;;;;;8.20;2.53;;;;;;;;;;10210224;28;20218;-80
2021/01/21 20:00:01;;;;;;;3.90;2.10;;;;;;;;;;10206364;28;20259;-83
2021/01/21 20:05:03;;;;;;;5.43;2.30;;;;;;;;;;10210279;28;20674;-84
2021/01/21 20:10:07;;;;;;;4.07;2.20;;;;;;;;;;10196717;28;20269;-81
2021/01/21 20:15:09;;;;;;;7.00;2.43;;;;;;;;;;10203961;28;20241;-82
2021/01/21 20:20:12;;;;;;;5.67;2.00;;;;;;;;;;10209391;28;20222;-82
2021/01/21 20:25:15;;;;;;;6.23;1.70;;;;;;;;;;10204709;28;20819;-85
2021/01/21 20:30:22;;;;;;;3.93;1.70;;;;;;;;;;10203332;28;20243;-85
2021/01/21 20:35:24;;;;;;;3.23;1.50;;;;;;;;;;10198298;28;20242;-84
2021/01/21 20:40:27;;;;;;;5.07;1.73;;;;;;;;;;10203214;28;20215;-83
2021/01/21 20:45:28;;;;;;;4.60;1.93;;;;;;;;;;10202179;28;20226;-85
2021/01/21 20:50:32;;;;;;;4.57;1.60;;;;;;;;;;10201842;28;20249;-85
2021/01/21 20:55:34;;;;;;;2.43;1.47;;;;;;;;;;10203098;28;20216;-86
2021/01/21 21:00:37;;;;;;;4.87;1.70;;;;;;;;;;10204781;28;20230;-87
2021/01/21 21:05:38;;;;;;;3.10;1.70;;;;;;;;;;10206664;28;20230;-85
2021/01/21 21:10:41;;;;;;;4.50;1.77;;;;;;;;;;10204781;28;20253;-85
2021/01/21 21:15:43;;;;;;;9.47;4.20;;;;;;;;;;10207002;28;20215;-87
2021/01/21 21:20:48;;;;;;;8.73;3.90;;;;;;;;;;10206673;28;20831;-89
2021/01/21 21:25:50;;;;;;;5.67;2.80;;;;;;;;;;10512775;23;20250;-77
2021/01/21 21:30:52;;;;;;;4.73;2.37;;;;;;;;;;10203242;28;20510;-78
2021/01/21 21:35:56;;;;;;;5.30;2.20;;;;;;;;;;10203680;28;20297;-79
2021/01/21 21:40:58;;;;;;;3.70;1.97;;;;;;;;;;10206347;28;20237;-80
2021/01/21 21:46:00;;;;;;;5.17;2.10;;;;;;;;;;10214225;28;20278;-80
2021/01/21 21:51:02;;;;;;;3.23;1.70;;;;;;;;;;10189270;28;20337;-78
2021/01/21 21:56:05;;;;;;;2.00;1.23;;;;;;;;;;10244129;23;20203;-76
2021/01/21 22:01:07;;;;;;;2.03;1.20;;;;;;;;;;10233939;28;20219;-76
2021/01/21 22:06:09;;;;;;;2.00;1.23;;;;;;;;;;10251159;28;20249;-76
2021/01/21 22:11:11;;;;;;;1.93;1.30;;;;;;;;;;10248879;28;20253;-76
2021/01/21 22:16:13;;;;;;;2.80;1.30;;;;;;;;;;10243694;28;20718;-76
2021/01/21 22:21:15;;;;;;;2.60;1.53;;;;;;;;;;10235079;28;20755;-77
2021/01/21 22:26:18;;;;;;;2.87;1.50;;;;;;;;;;10244095;28;20231;-74
2021/01/21 22:31:21;;;;;;;3.63;1.40;;;;;;;;;;10245580;28;20242;-75
2021/01/21 22:36:23;;;;;;;1.50;1.10;;;;;;;;;;10232654;28;20251;-75
2021/01/21 22:41:26;;;;;;;1.50;1.03;;;;;;;;;;10224423;28;20242;-75
2021/01/21 22:46:28;;;;;;;1.63;1.13;;;;;;;;;;10224565;28;20219;-74
2021/01/21 22:51:30;;;;;;;1.27;1.03;;;;;;;;;;10208534;28;20235;-75
2021/01/21 22:56:33;;;;;;;2.17;1.30;;;;;;;;;;10214250;28;20691;-75
2021/01/21 23:01:34;;;;;;;1.27;1.10;;;;;;;;;;10219775;28;21040;-75
2021/01/21 23:06:36;;;;;;;1.73;1.10;;;;;;;;;;10215523;28;20207;-75
2021/01/21 23:11:39;;;;;;;1.70;1.00;;;;;;;;;;10217674;28;20735;-75
2021/01/21 23:16:41;;;;;;;1.50;1.00;;;;;;;;;;10211998;28;20223;-75
2021/01/21 23:21:43;;;;;;;1.10;1.00;;;;;;;;;;10221200;28;20226;-75
2021/01/21 23:26:46;;;;;;;1.47;1.00;;;;;;;;;;10214984;28;20219;-75
2021/01/21 23:31:48;;;;;;;1.00;1.00;;;;;;;;;;10218628;28;20238;-75
2021/01/21 23:36:50;;;;;;;1.37;1.00;;;;;;;;;;10210876;28;20247;-75
2021/01/21 23:41:52;;;;;;;0.90;0.90;;;;;;;;;;10215223;28;20222;-75
2021/01/21 23:46:54;;;;;;;1.47;1.30;;;;;;;;;;10218163;28;21688;-74
2021/01/21 23:51:56;;;;;;;2.03;1.47;;;;;;;;;;10211893;28;20295;-75
2021/01/21 23:56:59;;;;;;;2.80;1.60;;;;;;;;;;10213425;28;20223;-76
